Time;durP1;ratioP1;P1;durP2;ratioP2;P2;SDS_P1;SDS_P2;PMS_P1;PMS_P2;Temp;Humidity;BMP_temperature;BMP_pressure;BME280_temperature;BME280_humidity;BME280_pressure;Samples;Min_cycle;Max_cycle;Signal;HPM_P1;HPM_P2
2022/06/16 00:00:19;;;;;;;;;;;27.10;39.10;;;;;;663154;29;1217;-89
2022/06/16 00:00:40;;;;;;;;;;;27.10;38.60;;;;;;662971;29;1276;-88
2022/06/16 00:01:01;;;;;;;;;;;27.10;39.40;;;;;;665225;29;1217;-88
2022/06/16 00:01:21;;;;;;;;;;;27.10;39.60;;;;;;665591;29;1345;-90
2022/06/16 00:01:42;;;;;;;;;;;25.80;39.20;;;;;;668129;29;1371;-89
2022/06/16 00:02:03;;;;;;;;;;;27.00;41.20;;;;;;670417;29;1140;-88
2022/06/16 00:02:23;;;;;;;;;;;27.00;40.80;;;;;;670235;29;1341;-88
2022/06/16 00:02:47;;;;;;;;;;;27.10;41.50;;;;;;667847;29;1240;-88
2022/06/16 00:03:08;;;;;;;;;;;27.00;39.00;;;;;;667624;29;1364;-85
2022/06/16 00:03:29;;;;;;;;;;;27.10;39.20;;;;;;665135;29;1464;-89
2022/06/16 00:03:50;;;;;;;;;;;27.10;39.90;;;;;;665802;29;1138;-88
2022/06/16 00:04:10;;;;;;;;;;;27.10;39.10;;;;;;665174;29;1248;-85
2022/06/16 00:04:31;;;;;;;;;;;27.10;39.20;;;;;;663296;29;1275;-84
2022/06/16 00:04:51;;;;;;;;;;;27.10;38.90;;;;;;664721;29;1227;-85
2022/06/16 00:05:13;;;;;;;;;;;27.10;39.80;;;;;;665369;29;1916;-87
2022/06/16 00:05:35;;;;;;;;;;;26.10;38.50;;;;;;667342;29;1166;-87
2022/06/16 00:05:56;;;;;;;;;;;27.10;38.80;;;;;;668120;29;1276;-85
2022/06/16 00:06:17;;;;;;;;;;;27.10;40.30;;;;;;667638;29;1277;-84
2022/06/16 00:06:37;;;;;;;;;;;27.10;39.20;;;;;;667795;29;1306;-88
2022/06/16 00:06:59;;;;;;;;;;;27.10;38.70;;;;;;667879;29;852;-90
2022/06/16 00:07:19;;;;;;;;;;;27.10;39.20;;;;;;665229;29;1150;-88
2022/06/16 00:07:40;;;;;;;;;;;27.10;39.30;;;;;;665221;29;1237;-88
2022/06/16 00:08:04;;;;;;;;;;;27.10;39.10;;;;;;665680;29;1383;-89
2022/06/16 00:08:25;;;;;;;;;;;27.20;39.30;;;;;;668683;29;1101;-88
2022/06/16 00:08:45;;;;;;;;;;;27.10;38.90;;;;;;667249;29;1074;-86
2022/06/16 00:09:06;;;;;;;;;;;27.20;38.90;;;;;;667666;29;1290;-89
2022/06/16 00:09:27;;;;;;;;;;;27.20;38.70;;;;;;665265;29;1259;-87
2022/06/16 00:09:47;;;;;;;;;;;27.20;38.90;;;;;;664805;29;1187;-88
2022/06/16 00:10:09;;;;;;;;;;;27.20;38.60;;;;;;665186;29;513;-87
2022/06/16 00:10:29;;;;;;;;;;;27.20;38.60;;;;;;662997;29;1231;-89
2022/06/16 00:11:29;;;;;;;;;;;27.20;38.60;;;;;;670780;29;630;-90
2022/06/16 00:11:50;;;;;;;;;;;27.20;39.00;;;;;;667536;29;1477;-88
2022/06/16 00:12:11;;;;;;;;;;;27.20;38.60;;;;;;664670;29;1333;-88
2022/06/16 00:12:32;;;;;;;;;;;27.20;38.50;;;;;;667408;29;1244;-88
2022/06/16 00:12:52;;;;;;;;;;;27.20;38.80;;;;;;667738;29;849;-86
2022/06/16 00:13:13;;;;;;;;;;;27.20;38.50;;;;;;665946;29;1393;-86
2022/06/16 00:13:36;;;;;;;;;;;27.20;38.60;;;;;;666573;29;1359;-89
2022/06/16 00:13:57;;;;;;;;;;;27.20;38.50;;;;;;666435;29;1283;-86
2022/06/16 00:14:18;;;;;;;;;;;27.20;39.10;;;;;;666534;29;754;-84
2022/06/16 00:14:39;;;;;;;;;;;27.20;38.40;;;;;;663723;29;1260;-85
2022/06/16 00:14:59;;;;;;;;;;;27.20;38.40;;;;;;663208;29;1286;-89
2022/06/16 00:15:22;;;;;;;;;;;27.20;38.70;;;;;;663704;29;1374;-88
2022/06/16 00:15:43;;;;;;;;;;;27.20;38.40;;;;;;666207;29;1170;-87
2022/06/16 00:16:04;;;;;;;;;;;27.20;38.40;;;;;;665681;29;1038;-88
2022/06/16 00:16:25;;;;;;;;;;;26.30;37.70;;;;;;666017;29;1141;-87
2022/06/16 00:16:46;;;;;;;;;;;27.20;38.50;;;;;;665185;29;1210;-86
2022/06/16 00:17:06;;;;;;;;;;;27.20;38.60;;;;;;666111;29;1342;-86
2022/06/16 00:17:27;;;;;;;;;;;27.20;38.80;;;;;;664997;29;1364;-88
2022/06/16 00:17:48;;;;;;;;;;;27.20;40.30;;;;;;665141;29;1307;-87
2022/06/16 00:18:08;;;;;;;;;;;27.20;38.50;;;;;;665339;29;1351;-89
2022/06/16 00:18:29;;;;;;;;;;;27.20;39.20;;;;;;665439;29;844;-89
2022/06/16 00:18:50;;;;;;;;;;;27.20;38.30;;;;;;662722;29;1258;-86
2022/06/16 00:19:11;;;;;;;;;;;27.20;38.90;;;;;;662842;29;1412;-89
2022/06/16 00:19:32;;;;;;;;;;;27.20;38.80;;;;;;665673;29;1339;-92
2022/06/16 00:19:52;;;;;;;;;;;27.20;38.40;;;;;;668221;29;866;-90
2022/06/16 00:20:13;;;;;;;;;;;27.20;38.40;;;;;;670331;29;911;-89
2022/06/16 00:20:34;;;;;;;;;;;27.20;38.30;;;;;;669864;29;1466;-90
2022/06/16 00:20:55;;;;;;;;;;;25.70;37.00;;;;;;667758;29;1144;-89
2022/06/16 00:21:16;;;;;;;;;;;27.20;38.40;;;;;;664891;29;1262;-89
2022/06/16 00:21:37;;;;;;;;;;;27.20;38.30;;;;;;667775;29;1007;-89
2022/06/16 00:21:57;;;;;;;;;;;27.20;38.90;;;;;;667869;29;805;-89
2022/06/16 00:22:18;;;;;;;;;;;27.20;38.70;;;;;;667682;29;867;-88
2022/06/16 00:22:38;;;;;;;;;;;27.20;38.60;;;;;;668052;29;789;-89
2022/06/16 00:22:59;;;;;;;;;;;27.20;38.30;;;;;;667490;29;1224;-88
2022/06/16 00:23:19;;;;;;;;;;;27.20;38.60;;;;;;670074;29;1502;-88
2022/06/16 00:23:40;;;;;;;;;;;27.20;38.10;;;;;;670181;29;1397;-89
2022/06/16 00:24:01;;;;;;;;;;;27.30;38.30;;;;;;672851;29;1221;-89
2022/06/16 00:24:26;;;;;;;;;;;27.20;38.30;;;;;;670177;29;1083;-89
2022/06/16 00:24:47;;;;;;;;;;;27.20;38.20;;;;;;671144;29;812;-88
2022/06/16 00:25:08;;;;;;;;;;;27.20;38.20;;;;;;671862;29;1956;-88
2022/06/16 00:25:28;;;;;;;;;;;27.20;38.10;;;;;;670365;29;845;-89
2022/06/16 00:25:49;;;;;;;;;;;27.20;38.30;;;;;;671095;29;1228;-88
2022/06/16 00:26:14;;;;;;;;;;;27.20;38.30;;;;;;672821;29;1228;-89
2022/06/16 00:26:34;;;;;;;;;;;27.20;38.10;;;;;;672804;29;1235;-89
2022/06/16 00:26:55;;;;;;;;;;;27.30;38.30;;;;;;672864;29;856;-90
2022/06/16 00:27:16;;;;;;;;;;;27.20;38.10;;;;;;672863;29;1133;-89
2022/06/16 00:27:37;;;;;;;;;;;27.20;38.80;;;;;;672714;29;1493;-89
2022/06/16 00:27:57;;;;;;;;;;;27.20;38.70;;;;;;670505;29;1180;-89
2022/06/16 00:28:18;;;;;;;;;;;27.20;39.10;;;;;;670297;29;1270;-87
2022/06/16 00:28:40;;;;;;;;;;;27.20;38.50;;;;;;667984;29;1407;-85
2022/06/16 00:29:01;;;;;;;;;;;27.20;38.60;;;;;;668489;29;817;-88
2022/06/16 00:29:23;;;;;;;;;;;27.20;38.10;;;;;;670568;29;1235;-85
2022/06/16 00:29:43;;;;;;;;;;;27.20;38.30;;;;;;673472;29;1424;-83
2022/06/16 00:30:04;;;;;;;;;;;27.30;38.20;;;;;;672889;29;1255;-86
2022/06/16 00:30:25;;;;;;;;;;;27.20;38.10;;;;;;672886;29;825;-89
2022/06/16 00:30:45;;;;;;;;;;;27.20;38.00;;;;;;670311;29;1095;-89
2022/06/16 00:31:06;;;;;;;;;;;27.20;38.50;;;;;;673629;29;1263;-87
2022/06/16 00:31:27;;;;;;;;;;;27.20;38.00;;;;;;678128;29;1403;-89
2022/06/16 00:31:47;;;;;;;;;;;27.20;38.30;;;;;;678066;29;1222;-88
2022/06/16 00:32:08;;;;;;;;;;;27.20;38.00;;;;;;678085;29;1207;-89
2022/06/16 00:32:29;;;;;;;;;;;27.20;38.00;;;;;;678157;29;880;-88
2022/06/16 00:32:49;;;;;;;;;;;27.20;38.80;;;;;;678388;29;1369;-89
2022/06/16 00:33:10;;;;;;;;;;;27.10;39.10;;;;;;677941;29;1224;-91
2022/06/16 00:33:31;;;;;;;;;;;27.20;38.40;;;;;;675592;29;1201;-89
2022/06/16 00:33:51;;;;;;;;;;;27.20;38.50;;;;;;675364;29;1391;-89
2022/06/16 00:34:13;;;;;;;;;;;27.50;39.40;;;;;;675427;29;891;-89
2022/06/16 00:34:34;;;;;;;;;;;27.20;38.00;;;;;;675463;29;1167;-89
2022/06/16 00:34:56;;;;;;;;;;;27.20;38.30;;;;;;674939;29;1215;-89
2022/06/16 00:35:17;;;;;;;;;;;27.20;38.10;;;;;;675391;29;1134;-88
2022/06/16 00:35:40;;;;;;;;;;;27.20;38.20;;;;;;678220;29;1211;-89
2022/06/16 00:36:01;;;;;;;;;;;27.20;38.60;;;;;;677711;29;1379;-89
2022/06/16 00:36:22;;;;;;;;;;;27.20;39.40;;;;;;677761;29;1322;-90
2022/06/16 00:36:43;;;;;;;;;;;27.20;38.10;;;;;;678039;29;1262;-89
2022/06/16 00:37:04;;;;;;;;;;;27.20;38.70;;;;;;678121;29;883;-91
2022/06/16 00:37:24;;;;;;;;;;;27.20;38.40;;;;;;675610;29;1038;-90
2022/06/16 00:37:45;;;;;;;;;;;27.20;38.40;;;;;;675368;29;1532;-91
2022/06/16 00:38:06;;;;;;;;;;;27.20;38.20;;;;;;675787;29;887;-88
2022/06/16 00:38:27;;;;;;;;;;;27.20;38.00;;;;;;676003;29;1348;-88
2022/06/16 00:38:47;;;;;;;;;;;27.20;38.90;;;;;;678435;29;1186;-89
2022/06/16 00:39:08;;;;;;;;;;;27.20;38.50;;;;;;678046;29;1123;-89
2022/06/16 00:39:28;;;;;;;;;;;27.10;38.10;;;;;;675797;29;1295;-88
2022/06/16 00:39:49;;;;;;;;;;;27.10;38.30;;;;;;678509;29;1329;-89
2022/06/16 00:40:10;;;;;;;;;;;27.10;39.00;;;;;;678923;29;1490;-88
2022/06/16 00:40:30;;;;;;;;;;;27.10;38.10;;;;;;679117;29;1345;-88
2022/06/16 00:40:53;;;;;;;;;;;27.10;38.00;;;;;;679581;29;1287;-89
2022/06/16 00:41:14;;;;;;;;;;;27.10;38.50;;;;;;674238;29;1228;-88
2022/06/16 00:41:35;;;;;;;;;;;27.10;38.00;;;;;;673007;29;924;-89
2022/06/16 00:41:56;;;;;;;;;;;26.90;38.10;;;;;;673941;29;1342;-90
2022/06/16 00:42:19;;;;;;;;;;;27.00;38.70;;;;;;674226;29;1085;-89
2022/06/16 00:42:42;;;;;;;;;;;27.10;38.70;;;;;;675848;29;1200;-90
2022/06/16 00:43:02;;;;;;;;;;;27.10;38.40;;;;;;677216;29;1199;-88
2022/06/16 00:43:23;;;;;;;;;;;27.10;38.20;;;;;;676621;29;1233;-88
2022/06/16 00:43:44;;;;;;;;;;;27.10;38.10;;;;;;676562;29;844;-88
2022/06/16 00:44:13;;;;;;;;;;;27.10;38.00;;;;;;676318;29;1315;-90
2022/06/16 00:44:34;;;;;;;;;;;27.10;38.10;;;;;;674941;29;1290;-89
2022/06/16 00:44:57;;;;;;;;;;;27.10;38.10;;;;;;678078;29;1236;-89
2022/06/16 00:45:36;;;;;;;;;;;27.10;38.00;;;;;;680036;29;1937;-88
2022/06/16 00:46:00;;;;;;;;;;;27.10;38.10;;;;;;679431;29;1286;-88
2022/06/16 00:46:20;;;;;;;;;;;27.10;38.10;;;;;;678710;29;844;-85
2022/06/16 00:46:41;;;;;;;;;;;27.10;38.10;;;;;;678883;29;828;-87
2022/06/16 00:47:02;;;;;;;;;;;27.00;38.30;;;;;;678956;29;1468;-88
2022/06/16 00:47:25;;;;;;;;;;;27.10;38.10;;;;;;679000;29;1331;-84
2022/06/16 00:47:46;;;;;;;;;;;27.10;38.30;;;;;;678503;29;1053;-86
2022/06/16 00:48:07;;;;;;;;;;;27.10;38.50;;;;;;678388;29;1187;-87
2022/06/16 00:48:29;;;;;;;;;;;27.10;38.00;;;;;;678070;29;915;-88
2022/06/16 00:48:52;;;;;;;;;;;27.00;38.00;;;;;;678006;29;831;-86
2022/06/16 00:49:14;;;;;;;;;;;27.00;38.30;;;;;;676704;29;1099;-88
2022/06/16 00:49:36;;;;;;;;;;;27.00;38.00;;;;;;674775;29;1336;-86
2022/06/16 00:49:58;;;;;;;;;;;27.10;38.20;;;;;;678055;29;1293;-88
2022/06/16 00:50:19;;;;;;;;;;;27.10;38.30;;;;;;677927;29;1149;-89
2022/06/16 00:50:48;;;;;;;;;;;25.80;38.70;;;;;;677778;29;1245;-87
2022/06/16 00:52:58;;;;;;;;;;;27.00;38.30;;;;;;804632;23;1725;-90
2022/06/16 00:53:19;;;;;;;;;;;27.00;38.70;;;;;;684906;28;1399;-91
2022/06/16 00:53:40;;;;;;;;;;;27.00;39.10;;;;;;683472;28;1219;-92
2022/06/16 00:54:21;;;;;;;;;;;27.00;38.40;;;;;;680837;29;1096;-88
2022/06/16 00:54:45;;;;;;;;;;;27.00;38.40;;;;;;675266;29;1357;-93
2022/06/16 00:55:14;;;;;;;;;;;27.00;38.80;;;;;;678315;29;1199;-91
2022/06/16 00:55:34;;;;;;;;;;;27.00;38.30;;;;;;682485;29;1171;-92
2022/06/16 00:55:55;;;;;;;;;;;26.90;38.70;;;;;;685380;28;834;-92
2022/06/16 00:56:17;;;;;;;;;;;27.00;38.60;;;;;;683336;29;1497;-92
2022/06/16 00:56:38;;;;;;;;;;;27.00;38.40;;;;;;685581;28;839;-92
2022/06/16 00:57:01;;;;;;;;;;;27.00;38.90;;;;;;683295;29;1216;-93
2022/06/16 00:57:25;;;;;;;;;;;27.00;38.40;;;;;;685217;29;1374;-90
2022/06/16 00:57:48;;;;;;;;;;;27.00;38.30;;;;;;682907;29;1357;-89
2022/06/16 00:58:09;;;;;;;;;;;27.00;38.40;;;;;;678945;29;1273;-87
2022/06/16 00:58:31;;;;;;;;;;;26.90;38.90;;;;;;677746;29;1309;-92
2022/06/16 00:58:53;;;;;;;;;;;27.00;38.70;;;;;;679257;29;1081;-87
2022/06/16 00:59:14;;;;;;;;;;;26.90;39.00;;;;;;677315;29;1319;-85
2022/06/16 00:59:35;;;;;;;;;;;26.90;41.30;;;;;;677983;29;1269;-91
2022/06/16 00:59:57;;;;;;;;;;;26.90;38.80;;;;;;676698;29;1323;-94
2022/06/16 01:00:49;;;;;;;;;;;26.90;38.50;;;;;;677550;29;940;-87
2022/06/16 01:01:11;;;;;;;;;;;27.00;38.70;;;;;;677796;29;1279;-93
2022/06/16 01:01:33;;;;;;;;;;;26.90;39.00;;;;;;675189;29;1305;-90
2022/06/16 01:01:54;;;;;;;;;;;26.80;38.50;;;;;;676912;29;1308;-89
2022/06/16 01:02:15;;;;;;;;;;;26.90;38.50;;;;;;677912;29;1208;-90
2022/06/16 01:02:35;;;;;;;;;;;26.90;38.60;;;;;;675313;29;1294;-88
2022/06/16 01:02:56;;;;;;;;;;;26.90;38.80;;;;;;671572;29;1204;-95
2022/06/16 01:04:51;;;;;;;;;;;26.90;38.90;;;;;;679969;29;675;-87
2022/06/16 01:05:12;;;;;;;;;;;26.90;38.40;;;;;;684700;29;1891;-89
2022/06/16 01:05:32;;;;;;;;;;;26.90;38.30;;;;;;682184;29;1096;-88
2022/06/16 01:05:53;;;;;;;;;;;26.90;39.20;;;;;;680128;29;1325;-90
2022/06/16 01:06:21;;;;;;;;;;;26.90;38.90;;;;;;679985;29;1329;-87
2022/06/16 01:06:43;;;;;;;;;;;26.90;38.30;;;;;;680018;29;1339;-90
2022/06/16 01:07:06;;;;;;;;;;;26.90;38.50;;;;;;677987;29;1437;-91
2022/06/16 01:07:29;;;;;;;;;;;26.90;38.60;;;;;;678782;29;1315;-89
2022/06/16 01:07:50;;;;;;;;;;;26.90;38.70;;;;;;676903;29;1336;-87
2022/06/16 01:08:11;;;;;;;;;;;26.90;38.80;;;;;;675038;29;1358;-90
2022/06/16 01:08:31;;;;;;;;;;;26.90;39.00;;;;;;675419;29;1086;-91
2022/06/16 01:08:58;;;;;;;;;;;26.90;38.90;;;;;;672970;29;1212;-90
2022/06/16 01:09:20;;;;;;;;;;;26.90;38.50;;;;;;670300;29;1406;-86
2022/06/16 01:09:43;;;;;;;;;;;26.80;39.00;;;;;;671690;29;1361;-85
2022/06/16 01:10:04;;;;;;;;;;;27.10;39.90;;;;;;676621;29;860;-90
2022/06/16 01:10:30;;;;;;;;;;;26.80;38.70;;;;;;675463;29;1281;-85
2022/06/16 01:10:51;;;;;;;;;;;26.90;38.60;;;;;;677122;29;1176;-89
2022/06/16 01:13:41;;;;;;;;;;;26.80;38.50;;;;;;678998;29;1285;-87
2022/06/16 01:13:45;;;;;;;;;;;26.80;38.50;;;;;;683469;29;681;-93
2022/06/16 01:14:10;;;;;;;;;;;26.80;38.50;;;;;;680567;29;1320;-89
2022/06/16 01:14:36;;;;;;;;;;;26.80;38.50;;;;;;677407;29;1368;-90
2022/06/16 01:15:21;;;;;;;;;;;26.80;38.50;;;;;;676766;29;1559;-91
2022/06/16 01:15:44;;;;;;;;;;;26.80;38.60;;;;;;678182;29;1320;-88
2022/06/16 01:16:10;;;;;;;;;;;26.90;38.80;;;;;;680741;29;1014;-92
2022/06/16 01:16:37;;;;;;;;;;;26.80;38.80;;;;;;680440;29;1256;-85
2022/06/16 01:17:00;;;;;;;;;;;26.90;39.00;;;;;;677932;29;1178;-90
2022/06/16 01:17:44;;;;;;;;;;;26.90;39.00;;;;;;677776;29;1214;-91
2022/06/16 01:18:07;;;;;;;;;;;26.90;38.80;;;;;;667632;29;1308;-89
2022/06/16 01:18:36;;;;;;;;;;;26.90;38.90;;;;;;667532;29;1485;-89
2022/06/16 01:19:05;;;;;;;;;;;26.90;38.80;;;;;;667621;29;1412;-87
2022/06/16 01:19:55;;;;;;;;;;;26.90;38.70;;;;;;669024;29;1321;-92
2022/06/16 01:20:25;;;;;;;;;;;26.90;38.70;;;;;;669227;29;1362;-90
2022/06/16 01:20:48;;;;;;;;;;;26.90;38.80;;;;;;669001;29;1155;-92
2022/06/16 01:21:15;;;;;;;;;;;26.90;38.60;;;;;;667670;29;1198;-94
2022/06/16 01:21:40;;;;;;;;;;;27.00;38.80;;;;;;667512;29;1309;-92
2022/06/16 01:22:06;;;;;;;;;;;26.90;38.50;;;;;;667734;29;864;-88
2022/06/16 01:22:40;;;;;;;;;;;27.00;38.70;;;;;;667653;29;1310;-89
2022/06/16 01:23:26;;;;;;;;;;;26.90;38.50;;;;;;668940;29;1165;-91
2022/06/16 01:23:56;;;;;;;;;;;27.00;38.60;;;;;;667443;29;1424;-90
2022/06/16 01:24:43;;;;;;;;;;;27.00;38.50;;;;;;666473;29;1330;-94
2022/06/16 01:25:06;;;;;;;;;;;27.00;38.50;;;;;;670166;29;1952;-92
2022/06/16 01:25:30;;;;;;;;;;;27.00;38.40;;;;;;670153;29;1344;-94
2022/06/16 01:26:07;;;;;;;;;;;27.00;38.40;;;;;;672683;29;1224;-91
2022/06/16 01:26:37;;;;;;;;;;;27.00;38.40;;;;;;672864;29;1305;-93
2022/06/16 01:27:11;;;;;;;;;;;26.90;38.40;;;;;;672592;29;960;-94
2022/06/16 01:27:31;;;;;;;;;;;27.00;38.30;;;;;;672593;29;1179;-93
2022/06/16 01:28:08;;;;;;;;;;;27.00;38.60;;;;;;670183;29;1367;-93
2022/06/16 01:28:30;;;;;;;;;;;27.00;38.00;;;;;;670204;29;1176;-95
2022/06/16 01:28:54;;;;;;;;;;;27.00;38.50;;;;;;667499;29;1429;-94
2022/06/16 01:29:20;;;;;;;;;;;27.00;38.00;;;;;;667669;29;1328;-92
2022/06/16 01:29:54;;;;;;;;;;;26.90;38.10;;;;;;668478;29;1323;-91
2022/06/16 01:30:16;;;;;;;;;;;27.00;38.30;;;;;;669618;29;1235;-94
2022/06/16 01:30:56;;;;;;;;;;;27.00;38.30;;;;;;665667;29;1294;-94
2022/06/16 01:31:25;;;;;;;;;;;27.00;38.20;;;;;;665183;29;1363;-93
2022/06/16 01:31:53;;;;;;;;;;;27.10;38.00;;;;;;662634;29;1392;-95
2022/06/16 01:32:16;;;;;;;;;;;27.00;38.00;;;;;;665094;29;1197;-95
2022/06/16 01:32:44;;;;;;;;;;;27.00;37.90;;;;;;667321;29;1254;-95
2022/06/16 01:33:13;;;;;;;;;;;27.00;38.00;;;;;;668648;29;892;-93
2022/06/16 01:33:35;;;;;;;;;;;27.00;38.10;;;;;;671185;29;1343;-94
2022/06/16 01:34:21;;;;;;;;;;;27.00;38.90;;;;;;672612;29;1232;-94
2022/06/16 01:35:02;;;;;;;;;;;27.00;38.00;;;;;;666507;29;1435;-94
2022/06/16 01:35:29;;;;;;;;;;;27.00;38.70;;;;;;667431;29;1265;-92
2022/06/16 01:35:52;;;;;;;;;;;27.10;38.00;;;;;;669374;29;1402;-92
2022/06/16 01:36:25;;;;;;;;;;;27.10;38.00;;;;;;667721;29;1201;-92
2022/06/16 01:36:51;;;;;;;;;;;27.00;37.90;;;;;;667520;29;1213;-92
2022/06/16 01:37:24;;;;;;;;;;;27.00;37.90;;;;;;667576;29;1309;-92
2022/06/16 01:38:03;;;;;;;;;;;27.10;38.00;;;;;;668525;29;1146;-92
2022/06/16 01:38:43;;;;;;;;;;;27.00;38.00;;;;;;672782;29;1208;-94
2022/06/16 01:39:07;;;;;;;;;;;27.10;38.00;;;;;;668844;29;1414;-93
2022/06/16 01:39:34;;;;;;;;;;;27.00;37.90;;;;;;667712;29;1388;-93
2022/06/16 01:39:58;;;;;;;;;;;27.00;37.90;;;;;;665510;29;1199;-94
2022/06/16 01:40:37;;;;;;;;;;;27.10;38.00;;;;;;667829;29;1205;-91
2022/06/16 01:41:08;;;;;;;;;;;27.00;37.90;;;;;;667352;29;1374;-93
2022/06/16 01:41:36;;;;;;;;;;;27.10;37.90;;;;;;668002;29;1272;-93
2022/06/16 01:42:14;;;;;;;;;;;27.00;38.10;;;;;;670645;29;1318;-94
2022/06/16 01:42:36;;;;;;;;;;;27.10;37.80;;;;;;670804;29;1264;-91
2022/06/16 01:43:17;;;;;;;;;;;27.10;38.00;;;;;;670304;29;1288;-93
2022/06/16 01:43:42;;;;;;;;;;;27.00;38.30;;;;;;669804;29;1254;-93
2022/06/16 01:44:18;;;;;;;;;;;27.20;37.80;;;;;;670534;29;1369;-93
2022/06/16 01:44:55;;;;;;;;;;;27.10;37.60;;;;;;670680;29;1137;-93
2022/06/16 01:45:19;;;;;;;;;;;27.00;38.00;;;;;;672844;29;1899;-94
2022/06/16 01:45:57;;;;;;;;;;;27.00;37.90;;;;;;669882;29;1290;-94
2022/06/16 01:46:29;;;;;;;;;;;27.00;37.80;;;;;;670082;29;1379;-93
2022/06/16 01:46:56;;;;;;;;;;;27.00;37.80;;;;;;669858;29;1383;-92
2022/06/16 01:47:18;;;;;;;;;;;27.00;38.00;;;;;;665160;29;1195;-92
2022/06/16 01:47:41;;;;;;;;;;;27.00;38.00;;;;;;668729;29;1387;-91
2022/06/16 01:48:01;;;;;;;;;;;27.00;38.10;;;;;;672957;29;1234;-92
2022/06/16 01:48:23;;;;;;;;;;;27.00;38.30;;;;;;672781;29;1136;-90
2022/06/16 01:48:46;;;;;;;;;;;26.90;38.30;;;;;;671501;29;1277;-88
2022/06/16 01:49:18;;;;;;;;;;;27.00;38.30;;;;;;671257;29;1394;-91
2022/06/16 01:49:41;;;;;;;;;;;26.90;37.90;;;;;;670040;29;1671;-92
2022/06/16 01:50:08;;;;;;;;;;;27.00;38.00;;;;;;667726;29;985;-87
2022/06/16 01:50:33;;;;;;;;;;;27.00;37.90;;;;;;665440;29;896;-91
2022/06/16 01:50:56;;;;;;;;;;;26.90;37.90;;;;;;669780;29;1251;-87
2022/06/16 01:51:36;;;;;;;;;;;28.50;39.10;;;;;;670032;29;1244;-92
2022/06/16 01:52:02;;;;;;;;;;;26.90;37.90;;;;;;672762;29;1196;-90
2022/06/16 01:52:25;;;;;;;;;;;26.90;37.80;;;;;;670125;29;1282;-90
2022/06/16 01:53:06;;;;;;;;;;;26.90;37.90;;;;;;668856;29;1224;-90
2022/06/16 01:53:33;;;;;;;;;;;26.90;37.80;;;;;;665187;29;1299;-92
2022/06/16 01:54:00;;;;;;;;;;;26.90;37.90;;;;;;664987;29;1338;-88
2022/06/16 01:54:23;;;;;;;;;;;26.90;37.90;;;;;;664343;29;1318;-92
2022/06/16 01:54:48;;;;;;;;;;;26.90;38.60;;;;;;667541;29;1268;-90
2022/06/16 01:55:15;;;;;;;;;;;26.20;37.50;;;;;;667301;29;1372;-91
2022/06/16 01:55:44;;;;;;;;;;;26.90;37.90;;;;;;665034;29;1413;-87
2022/06/16 01:56:10;;;;;;;;;;;26.80;37.90;;;;;;665350;29;1008;-91
2022/06/16 01:56:42;;;;;;;;;;;26.90;38.00;;;;;;667490;29;1310;-94
2022/06/16 01:57:03;;;;;;;;;;;26.80;37.90;;;;;;665031;29;1308;-91
2022/06/16 01:57:26;;;;;;;;;;;26.80;39.90;;;;;;665878;29;1259;-93
2022/06/16 01:57:52;;;;;;;;;;;26.80;38.10;;;;;;667671;29;1358;-92
2022/06/16 01:58:16;;;;;;;;;;;26.90;38.10;;;;;;664922;29;1403;-91
2022/06/16 01:58:38;;;;;;;;;;;25.90;37.90;;;;;;667524;29;1323;-89
2022/06/16 01:59:02;;;;;;;;;;;26.90;38.30;;;;;;665129;29;1284;-91
2022/06/16 01:59:35;;;;;;;;;;;26.80;38.40;;;;;;665104;29;1204;-86
2022/06/16 01:59:59;;;;;;;;;;;26.80;38.10;;;;;;665190;29;1301;-91
2022/06/16 02:00:21;;;;;;;;;;;26.80;38.00;;;;;;667646;29;1222;-91
2022/06/16 02:00:43;;;;;;;;;;;26.80;38.20;;;;;;670016;29;1235;-90
2022/06/16 02:01:07;;;;;;;;;;;26.80;38.40;;;;;;670111;29;1317;-90
2022/06/16 02:01:30;;;;;;;;;;;26.80;38.10;;;;;;670203;29;1192;-90
2022/06/16 02:01:52;;;;;;;;;;;26.80;38.30;;;;;;667507;29;1185;-90
2022/06/16 02:02:15;;;;;;;;;;;26.80;38.10;;;;;;663456;29;1317;-90
2022/06/16 02:02:37;;;;;;;;;;;26.80;38.10;;;;;;663410;29;1209;-90
2022/06/16 02:03:01;;;;;;;;;;;26.80;38.30;;;;;;669059;29;1432;-91
2022/06/16 02:03:26;;;;;;;;;;;26.80;38.40;;;;;;672618;29;1387;-90
2022/06/16 02:03:49;;;;;;;;;;;26.80;38.10;;;;;;674723;29;926;-91
2022/06/16 02:04:14;;;;;;;;;;;26.80;39.40;;;;;;672696;29;1222;-89
2022/06/16 02:04:38;;;;;;;;;;;26.80;38.60;;;;;;675042;29;1325;-91
2022/06/16 02:04:59;;;;;;;;;;;26.80;38.40;;;;;;672849;29;1294;-90
2022/06/16 02:05:22;;;;;;;;;;;26.80;39.00;;;;;;674988;29;1970;-90
2022/06/16 02:05:47;;;;;;;;;;;26.80;38.30;;;;;;675619;29;1483;-90
2022/06/16 02:06:28;;;;;;;;;;;26.80;38.40;;;;;;675266;29;1253;-90
2022/06/16 02:06:51;;;;;;;;;;;26.80;38.30;;;;;;674362;29;1241;-90
2022/06/16 02:07:14;;;;;;;;;;;26.80;38.30;;;;;;670040;29;1326;-88
2022/06/16 02:07:39;;;;;;;;;;;26.80;38.30;;;;;;672674;29;1243;-89
2022/06/16 02:08:06;;;;;;;;;;;26.80;38.40;;;;;;672789;29;1235;-91
2022/06/16 02:08:31;;;;;;;;;;;25.20;37.40;;;;;;672708;29;1251;-89
2022/06/16 02:08:55;;;;;;;;;;;26.80;38.70;;;;;;672680;29;1370;-89
2022/06/16 02:09:17;;;;;;;;;;;26.80;38.80;;;;;;672976;29;1381;-89
2022/06/16 02:09:41;;;;;;;;;;;26.80;38.60;;;;;;673541;29;1343;-88
2022/06/16 02:10:09;;;;;;;;;;;26.80;38.40;;;;;;670843;29;1212;-88
2022/06/16 02:10:32;;;;;;;;;;;26.80;38.50;;;;;;670809;29;1260;-89
2022/06/16 02:10:55;;;;;;;;;;;26.80;38.50;;;;;;670618;29;1284;-87
2022/06/16 02:11:27;;;;;;;;;;;26.80;38.50;;;;;;672998;29;1400;-88
2022/06/16 02:11:49;;;;;;;;;;;26.80;38.50;;;;;;673796;29;1277;-90
2022/06/16 02:12:55;;;;;;;;;;;26.80;38.40;;;;;;676299;29;847;-95
2022/06/16 02:12:57;;;;;;;;;;;26.80;38.50;;;;;;675938;29;868;-90
2022/06/16 02:13:21;;;;;;;;;;;26.80;38.60;;;;;;676550;29;1089;-91
2022/06/16 02:13:48;;;;;;;;;;;26.80;38.90;;;;;;676989;29;1183;-94
2022/06/16 02:14:14;;;;;;;;;;;26.80;38.40;;;;;;675850;29;1396;-92
2022/06/16 02:14:38;;;;;;;;;;;26.70;38.40;;;;;;675359;29;1289;-93
2022/06/16 02:15:05;;;;;;;;;;;26.80;39.10;;;;;;675618;29;1160;-94
2022/06/16 02:15:32;;;;;;;;;;;26.70;38.30;;;;;;675951;29;1349;-91
2022/06/16 02:16:02;;;;;;;;;;;26.70;38.30;;;;;;675490;29;1265;-92
2022/06/16 02:16:24;;;;;;;;;;;26.70;38.30;;;;;;674709;29;1392;-93
2022/06/16 02:16:46;;;;;;;;;;;26.70;38.70;;;;;;670234;29;1338;-90
2022/06/16 02:17:07;;;;;;;;;;;26.70;38.60;;;;;;667688;29;1280;-93
2022/06/16 02:17:28;;;;;;;;;;;26.10;38.10;;;;;;667986;29;1224;-91
2022/06/16 02:17:49;;;;;;;;;;;26.80;38.50;;;;;;667667;29;1242;-91
2022/06/16 02:18:15;;;;;;;;;;;26.70;39.60;;;;;;670497;29;1215;-91
2022/06/16 02:18:43;;;;;;;;;;;26.70;39.40;;;;;;672789;29;1326;-89
2022/06/16 02:19:05;;;;;;;;;;;26.60;38.40;;;;;;672610;29;1331;-88
2022/06/16 02:19:26;;;;;;;;;;;26.80;39.00;;;;;;672805;29;884;-88
2022/06/16 02:19:47;;;;;;;;;;;26.70;39.30;;;;;;674852;29;749;-84
2022/06/16 02:20:08;;;;;;;;;;;26.80;39.30;;;;;;675237;29;796;-85
2022/06/16 02:20:34;;;;;;;;;;;26.80;39.70;;;;;;676796;29;1227;-86
2022/06/16 02:20:54;;;;;;;;;;;26.80;39.60;;;;;;675249;29;1381;-89
2022/06/16 02:21:23;;;;;;;;;;;26.80;39.60;;;;;;675225;29;1311;-88
2022/06/16 02:21:47;;;;;;;;;;;26.80;39.10;;;;;;675232;29;808;-86
2022/06/16 02:22:08;;;;;;;;;;;26.80;39.40;;;;;;675174;29;1137;-86
2022/06/16 02:22:28;;;;;;;;;;;26.80;38.90;;;;;;675300;29;769;-88
2022/06/16 02:22:49;;;;;;;;;;;26.80;38.90;;;;;;676957;29;1239;-87
2022/06/16 02:23:10;;;;;;;;;;;26.70;38.80;;;;;;677853;29;918;-88
2022/06/16 02:23:30;;;;;;;;;;;26.80;38.90;;;;;;675333;29;1306;-89
2022/06/16 02:23:51;;;;;;;;;;;26.80;39.00;;;;;;675148;29;1325;-88
2022/06/16 02:24:13;;;;;;;;;;;26.80;38.90;;;;;;675155;29;1183;-88
2022/06/16 02:24:34;;;;;;;;;;;26.80;38.70;;;;;;675330;29;824;-86
2022/06/16 02:24:54;;;;;;;;;;;26.80;38.70;;;;;;675044;29;1350;-86
2022/06/16 02:25:15;;;;;;;;;;;26.80;38.90;;;;;;675153;29;1903;-88
2022/06/16 02:25:36;;;;;;;;;;;26.80;38.60;;;;;;672508;29;1348;-87
2022/06/16 02:25:57;;;;;;;;;;;26.80;38.70;;;;;;672794;29;828;-87
2022/06/16 02:26:18;;;;;;;;;;;26.80;38.90;;;;;;672523;29;1183;-88
2022/06/16 02:26:39;;;;;;;;;;;26.80;38.60;;;;;;673069;29;859;-87
2022/06/16 02:27:00;;;;;;;;;;;26.80;38.60;;;;;;672199;29;1332;-84
2022/06/16 02:27:21;;;;;;;;;;;26.80;38.60;;;;;;670010;29;1136;-88
2022/06/16 02:27:41;;;;;;;;;;;26.80;38.50;;;;;;667454;29;1346;-86
2022/06/16 02:28:02;;;;;;;;;;;26.80;38.60;;;;;;667644;29;1145;-84
2022/06/16 02:28:23;;;;;;;;;;;26.70;38.60;;;;;;667348;29;1107;-88
2022/06/16 02:28:45;;;;;;;;;;;26.70;38.60;;;;;;667776;29;1374;-87
2022/06/16 02:29:26;;;;;;;;;;;26.80;38.50;;;;;;668023;29;1297;-88
2022/06/16 02:29:46;;;;;;;;;;;26.80;38.50;;;;;;674749;29;1313;-87
2022/06/16 02:30:07;;;;;;;;;;;26.80;38.50;;;;;;670134;29;1305;-87
2022/06/16 02:30:31;;;;;;;;;;;26.70;38.50;;;;;;670082;29;1291;-88
2022/06/16 02:31:03;;;;;;;;;;;26.70;38.50;;;;;;670610;29;1113;-86
2022/06/16 02:31:25;;;;;;;;;;;26.80;38.40;;;;;;675026;29;1368;-87
2022/06/16 02:31:48;;;;;;;;;;;26.80;39.20;;;;;;675105;29;1200;-87